Time;durP1;ratioP1;P1;durP2;ratioP2;P2;SDS_P1;SDS_P2;PMS_P1;PMS_P2;Temp;Humidity;BMP_temperature;BMP_pressure;BME280_temperature;BME280_humidity;BME280_pressure;Samples;Min_cycle;Max_cycle;Signal;HPM_P1;HPM_P2
2024/03/24 00:01:07;;;;;;;0.65;0.65;;;5.30;1.00;;;;;;5047501;28;20044;-84
2024/03/24 00:03:36;;;;;;;0.28;0.20;;;5.20;1.00;;;;;;5033194;28;20045;-81
2024/03/24 00:06:03;;;;;;;0.20;0.20;;;5.20;1.00;;;;;;5029884;28;20034;-82
2024/03/24 00:08:30;;;;;;;0.10;0.10;;;5.20;1.00;;;;;;5008520;28;20061;-81
2024/03/24 00:10:57;;;;;;;0.13;0.13;;;5.20;1.00;;;;;;5026039;28;20033;-81
2024/03/24 00:13:24;;;;;;;0.70;0.50;;;5.20;1.00;;;;;;5022075;28;20377;-80
2024/03/24 00:15:50;;;;;;;0.52;0.52;;;5.30;1.00;;;;;;5005285;28;20048;-80
2024/03/24 00:18:17;;;;;;;0.20;0.20;;;5.20;1.00;;;;;;5015211;28;20049;-81
2024/03/24 00:20:43;;;;;;;1.08;0.80;;;5.30;1.00;;;;;;5007709;28;20042;-80
2024/03/24 00:23:09;;;;;;;0.57;0.40;;;5.30;1.00;;;;;;4999711;28;20042;-81
2024/03/24 00:25:36;;;;;;;0.30;0.30;;;5.30;1.00;;;;;;5040114;28;20428;-81
2024/03/24 00:28:02;;;;;;;0.35;0.35;;;5.30;1.00;;;;;;5004502;28;20045;-81
2024/03/24 00:30:29;;;;;;;3.30;0.52;;;5.30;1.00;;;;;;5029771;28;20037;-78
2024/03/24 00:32:55;;;;;;;0.30;0.30;;;5.30;58.50;;;;;;5014515;28;20057;-78
2024/03/24 00:35:21;;;;;;;0.22;0.22;;;5.20;99.90;;;;;;5028865;28;20044;-78
2024/03/24 00:37:50;;;;;;;3.25;1.02;;;5.00;99.90;;;;;;5030576;28;20034;-79
2024/03/24 00:40:16;;;;;;;0.47;0.47;;;4.80;99.90;;;;;;5027766;28;20025;-79
2024/03/24 00:42:42;;;;;;;0.10;0.10;;;4.70;99.90;;;;;;5020819;28;20034;-79
2024/03/24 00:45:09;;;;;;;0.10;0.10;;;4.60;99.90;;;;;;5002470;28;20049;-80
2024/03/24 00:47:36;;;;;;;0.30;0.30;;;4.60;1.00;;;;;;5033095;28;20431;-79
2024/03/24 00:50:03;;;;;;;0.10;0.10;;;4.50;1.00;;;;;;5007881;28;20049;-80
2024/03/24 00:52:31;;;;;;;0.15;0.15;;;4.60;1.00;;;;;;5030098;28;20036;-80
2024/03/24 00:54:59;;;;;;;0.10;0.10;;;4.60;1.00;;;;;;5040193;28;20038;-80
2024/03/24 00:57:25;;;;;;;2.70;0.75;;;4.60;1.00;;;;;;5022531;28;20041;-80
2024/03/24 00:59:51;;;;;;;0.10;0.10;;;4.60;1.00;;;;;;5027810;28;20053;-82
2024/03/24 01:02:18;;;;;;;0.10;0.10;;;4.60;2.90;;;;;;5031186;28;20040;-81
2024/03/24 01:04:44;;;;;;;0.13;0.13;;;4.60;1.00;;;;;;5046499;28;20065;-80
2024/03/24 01:07:12;;;;;;;0.17;0.17;;;4.70;1.00;;;;;;5007646;28;20039;-81
2024/03/24 01:09:39;;;;;;;0.13;0.13;;;4.70;1.00;;;;;;5030125;28;20049;-81
2024/03/24 01:12:07;;;;;;;0.13;0.13;;;4.70;1.00;;;;;;5023201;28;20033;-81
2024/03/24 01:14:33;;;;;;;0.47;0.47;;;4.80;1.00;;;;;;5034240;28;20074;-80
2024/03/24 01:16:59;;;;;;;0.10;0.10;;;4.70;1.00;;;;;;5032952;28;20450;-80
2024/03/24 01:19:26;;;;;;;0.10;0.10;;;4.80;1.00;;;;;;5046266;28;20064;-80
2024/03/24 01:21:52;;;;;;;3.25;0.77;;;4.80;1.00;;;;;;5030603;28;20389;-80
2024/03/24 01:24:18;;;;;;;0.20;0.20;;;4.80;1.00;;;;;;5025645;28;20036;-80
2024/03/24 01:26:44;;;;;;;0.10;0.10;;;4.80;1.00;;;;;;5013796;28;20053;-81
2024/03/24 01:29:13;;;;;;;0.10;0.10;;;4.80;1.00;;;;;;5020991;28;20382;-81
2024/03/24 01:31:39;;;;;;;0.10;0.10;;;4.90;1.00;;;;;;5031102;28;20037;-80
2024/03/24 01:34:06;;;;;;;0.30;0.30;;;4.80;1.00;;;;;;5032350;28;20385;-82
2024/03/24 01:36:32;;;;;;;0.65;0.65;;;4.90;1.00;;;;;;5030740;28;20034;-80
2024/03/24 01:38:59;;;;;;;0.10;0.10;;;5.00;1.00;;;;;;5028064;28;20477;-81
2024/03/24 01:41:25;;;;;;;0.20;0.20;;;5.00;1.00;;;;;;5023517;28;20038;-79
2024/03/24 01:43:51;;;;;;;0.10;0.10;;;5.10;1.00;;;;;;5010814;28;20056;-80
2024/03/24 01:46:18;;;;;;;0.73;0.73;;;5.10;99.90;;;;;;5031414;28;20037;-80
2024/03/24 01:48:44;;;;;;;0.25;0.25;;;5.00;99.90;;;;;;5031081;28;20401;-79
2024/03/24 01:51:13;;;;;;;0.30;0.30;;;5.00;99.90;;;;;;5027337;28;20052;-80
2024/03/24 01:53:40;;;;;;;0.25;0.25;;;5.00;99.90;;;;;;5023412;28;20037;-79
2024/03/24 01:56:07;;;;;;;0.32;0.32;;;4.90;99.90;;;;;;5024255;28;20029;-81
2024/03/24 01:58:34;;;;;;;0.17;0.17;;;4.90;99.90;;;;;;5024338;28;20048;-80
2024/03/24 02:01:02;;;;;;;0.17;0.17;;;4.90;99.90;;;;;;5030588;28;20040;-79
2024/03/24 02:03:29;;;;;;;0.10;0.10;;;4.90;1.00;;;;;;5031284;28;20035;-79
2024/03/24 02:05:58;;;;;;;0.10;0.10;;;4.80;1.00;;;;;;5008610;28;20506;-79
2024/03/24 02:08:24;;;;;;;0.10;0.10;;;4.80;1.00;;;;;;5028709;28;20045;-79
2024/03/24 02:10:50;;;;;;;0.10;0.10;;;4.80;1.00;;;;;;5024126;28;20026;-79
2024/03/24 02:13:16;;;;;;;0.10;0.10;;;4.80;1.00;;;;;;5023242;28;20029;-79
2024/03/24 02:15:43;;;;;;;0.10;0.10;;;4.90;1.00;;;;;;5029074;28;20037;-79
2024/03/24 02:18:09;;;;;;;0.10;0.10;;;4.90;1.00;;;;;;5030061;28;20025;-79
2024/03/24 02:20:35;;;;;;;0.10;0.10;;;4.90;99.90;;;;;;5028809;28;20045;-79
2024/03/24 02:23:01;;;;;;;0.50;0.50;;;4.90;99.90;;;;;;5028811;28;20041;-79
2024/03/24 02:25:27;;;;;;;0.10;0.10;;;4.90;99.90;;;;;;5024598;28;20030;-80
2024/03/24 02:27:54;;;;;;;0.57;0.57;;;4.80;99.90;;;;;;5007328;28;20397;-79
2024/03/24 02:30:20;;;;;;;0.10;0.10;;;4.80;1.00;;;;;;5026090;28;20029;-79
2024/03/24 02:32:46;;;;;;;0.15;0.15;;;4.80;1.00;;;;;;5030538;28;20386;-79
2024/03/24 02:35:13;;;;;;;0.35;0.28;;;4.80;1.00;;;;;;5030727;28;20021;-80
2024/03/24 02:37:39;;;;;;;0.10;0.10;;;4.90;99.90;;;;;;5025145;28;20025;-80
2024/03/24 02:40:09;;;;;;;0.30;0.30;;;4.90;99.90;;;;;;5009976;28;20048;-81
2024/03/24 02:42:36;;;;;;;0.30;0.30;;;4.90;99.90;;;;;;5023694;28;20042;-80
2024/03/24 02:45:03;;;;;;;0.10;0.10;;;5.00;99.90;;;;;;5025812;28;20030;-81
2024/03/24 02:47:31;;;;;;;0.20;0.20;;;5.10;99.90;;;;;;5029352;28;20049;-80
2024/03/24 02:49:58;;;;;;;0.13;0.13;;;5.10;99.90;;;;;;5028332;28;20041;-78
2024/03/24 02:52:24;;;;;;;0.20;0.20;;;5.00;75.80;;;;;;5028477;28;20044;-79
2024/03/24 02:54:51;;;;;;;0.22;0.22;;;5.10;73.30;;;;;;5022685;28;20029;-79
2024/03/24 02:57:17;;;;;;;0.38;0.38;;;5.10;29.10;;;;;;5036021;28;20042;-79
2024/03/24 02:59:43;;;;;;;0.10;0.10;;;5.10;78.40;;;;;;5026095;28;20041;-80
2024/03/24 03:02:10;;;;;;;0.20;0.20;;;5.10;55.60;;;;;;5036469;28;20477;-82
2024/03/24 03:04:36;;;;;;;0.10;0.10;;;5.10;1.00;;;;;;5028916;28;20033;-79
2024/03/24 03:07:02;;;;;;;0.13;0.13;;;5.20;1.00;;;;;;5025908;28;20046;-79
2024/03/24 03:09:31;;;;;;;0.13;0.13;;;5.20;33.50;;;;;;5026912;28;20033;-79
2024/03/24 03:11:58;;;;;;;0.20;0.20;;;5.10;3.80;;;;;;5018934;28;20026;-79
2024/03/24 03:14:24;;;;;;;0.10;0.10;;;5.20;1.00;;;;;;5024450;28;20060;-79
2024/03/24 03:16:50;;;;;;;0.85;0.85;;;5.20;1.00;;;;;;5030725;28;20494;-79
2024/03/24 03:19:16;;;;;;;0.10;0.10;;;5.20;1.00;;;;;;5028810;28;20042;-80
2024/03/24 03:21:42;;;;;;;0.47;0.47;;;5.20;1.00;;;;;;5028269;28;20040;-78
2024/03/24 03:24:09;;;;;;;0.75;0.75;;;5.10;1.00;;;;;;5026268;28;20033;-78
2024/03/24 03:26:35;;;;;;;0.38;0.38;;;5.10;1.00;;;;;;5015779;28;20037;-80
2024/03/24 03:29:01;;;;;;;0.10;0.10;;;5.10;1.00;;;;;;5025326;28;20041;-80
2024/03/24 03:31:27;;;;;;;0.30;0.30;;;5.10;1.00;;;;;;5014901;28;20053;-79
2024/03/24 03:33:53;;;;;;;0.30;0.30;;;5.10;1.00;;;;;;5049170;28;20478;-79
2024/03/24 03:36:19;;;;;;;0.10;0.10;;;5.10;1.00;;;;;;5010118;28;20045;-78
2024/03/24 03:38:45;;;;;;;0.35;0.35;;;5.10;1.00;;;;;;5031611;28;20045;-79
2024/03/24 03:41:12;;;;;;;0.57;0.57;;;5.10;1.00;;;;;;5030470;28;20048;-83
2024/03/24 03:43:38;;;;;;;1.45;0.57;;;5.00;1.00;;;;;;5026215;28;20026;-80
2024/03/24 03:46:04;;;;;;;0.10;0.10;;;5.00;1.00;;;;;;5034188;28;20041;-79
2024/03/24 03:48:30;;;;;;;0.22;0.22;;;4.90;1.00;;;;;;5030552;28;20045;-80
2024/03/24 03:50:56;;;;;;;0.20;0.20;;;5.00;1.00;;;;;;5045525;28;20044;-80
2024/03/24 03:53:24;;;;;;;0.10;0.10;;;5.00;1.00;;;;;;5034125;28;20458;-80
2024/03/24 03:55:54;;;;;;;0.10;0.10;;;5.10;1.00;;;;;;5031178;28;20040;-79
2024/03/24 03:58:20;;;;;;;0.10;0.10;;;5.00;1.00;;;;;;5023737;28;20375;-80
2024/03/24 04:00:50;;;;;;;0.10;0.10;;;5.10;1.00;;;;;;5003594;28;20057;-79
2024/03/24 04:03:16;;;;;;;0.65;0.65;;;5.20;1.00;;;;;;5033364;28;20036;-80
2024/03/24 04:05:43;;;;;;;0.20;0.20;;;5.10;1.00;;;;;;5032731;28;20385;-80
2024/03/24 04:08:09;;;;;;;0.20;0.20;;;5.10;1.00;;;;;;5028115;28;20029;-80
2024/03/24 04:10:36;;;;;;;0.10;0.10;;;5.10;1.00;;;;;;5007522;28;20048;-80
2024/03/24 04:13:04;;;;;;;0.28;0.28;;;5.10;1.00;;;;;;5025397;28;20030;-81
2024/03/24 04:15:32;;;;;;;0.32;0.32;;;5.10;1.00;;;;;;5027727;28;20037;-79
2024/03/24 04:17:58;;;;;;;0.10;0.10;;;5.00;1.00;;;;;;5032728;28;20063;-80
2024/03/24 04:20:24;;;;;;;0.15;0.15;;;5.00;1.00;;;;;;5013607;28;20143;-80
2024/03/24 04:22:53;;;;;;;0.45;0.45;;;5.10;1.00;;;;;;5033572;28;20048;-79
2024/03/24 04:25:19;;;;;;;0.20;0.20;;;5.10;1.00;;;;;;5015642;28;20048;-80
2024/03/24 04:27:46;;;;;;;0.10;0.10;;;5.10;1.00;;;;;;5023070;28;20405;-80
2024/03/24 04:30:13;;;;;;;2.80;0.68;;;5.20;99.90;;;;;;5028581;28;20033;-77
2024/03/24 04:32:39;;;;;;;0.10;0.10;;;5.20;1.00;;;;;;5047617;28;20033;-77
2024/03/24 04:35:08;;;;;;;0.20;0.20;;;5.10;1.00;;;;;;5033335;28;20037;-79
2024/03/24 04:37:35;;;;;;;0.32;0.32;;;5.10;1.00;;;;;;5027780;28;20034;-80
2024/03/24 04:40:05;;;;;;;0.20;0.20;;;5.10;1.00;;;;;;5028301;28;20044;-80
2024/03/24 04:42:33;;;;;;;0.10;0.10;;;5.00;1.00;;;;;;5032736;28;20154;-80
2024/03/24 04:45:01;;;;;;;0.10;0.10;;;4.90;1.00;;;;;;5033481;28;20029;-79
2024/03/24 04:47:30;;;;;;;0.10;0.10;;;4.90;1.00;;;;;;5032603;28;20041;-78
2024/03/24 04:49:56;;;;;;;1.55;1.45;;;4.80;1.00;;;;;;5019575;28;20061;-79
2024/03/24 04:52:24;;;;;;;1.02;0.85;;;4.80;1.00;;;;;;5029928;28;20041;-81
2024/03/24 04:54:51;;;;;;;0.55;0.45;;;4.80;1.00;;;;;;5028243;28;20462;-80
2024/03/24 04:57:17;;;;;;;0.10;0.10;;;4.80;1.00;;;;;;5029427;28;20455;-82
2024/03/24 04:59:43;;;;;;;0.85;0.85;;;4.70;1.00;;;;;;5028771;28;20041;-82
2024/03/24 05:02:09;;;;;;;0.08;0.08;;;4.60;1.00;;;;;;4990565;28;20042;-80
2024/03/24 05:04:36;;;;;;;0.95;0.82;;;4.50;1.00;;;;;;5031336;28;20037;-80
2024/03/24 05:07:03;;;;;;;1.02;0.50;;;4.50;1.00;;;;;;5030774;28;20029;-81
2024/03/24 05:09:29;;;;;;;0.30;0.30;;;4.60;99.90;;;;;;5013166;28;20049;-79
2024/03/24 05:11:55;;;;;;;0.10;0.10;;;4.80;99.90;;;;;;5025987;28;20034;-79
2024/03/24 05:14:22;;;;;;;0.10;0.10;;;4.80;99.90;;;;;;5023986;28;20037;-79
2024/03/24 05:16:50;;;;;;;0.40;0.40;;;4.80;99.90;;;;;;5047112;28;20041;-79
2024/03/24 05:19:16;;;;;;;2.50;0.95;;;4.80;99.90;;;;;;5031127;28;20049;-79
2024/03/24 05:21:43;;;;;;;0.10;0.10;;;4.80;99.90;;;;;;5021320;28;20029;-79
2024/03/24 05:24:09;;;;;;;0.73;0.52;;;4.80;99.90;;;;;;5030057;28;20037;-79
2024/03/24 05:26:35;;;;;;;0.10;0.10;;;4.70;99.90;;;;;;5024482;28;20045;-79
2024/03/24 05:29:04;;;;;;;0.10;0.10;;;4.70;99.90;;;;;;5022267;28;20025;-79
2024/03/24 05:31:30;;;;;;;0.47;0.47;;;4.70;99.90;;;;;;5029995;28;20060;-79
2024/03/24 05:33:57;;;;;;;0.28;0.28;;;4.70;99.90;;;;;;5031711;28;20041;-79
2024/03/24 05:36:24;;;;;;;0.20;0.20;;;4.70;99.90;;;;;;5022613;28;20451;-79
2024/03/24 05:38:50;;;;;;;0.63;0.47;;;4.80;99.90;;;;;;5008471;28;20045;-80
2024/03/24 05:41:17;;;;;;;0.13;0.13;;;4.70;99.90;;;;;;4995476;28;20044;-79
2024/03/24 05:43:43;;;;;;;0.10;0.10;;;4.70;99.90;;;;;;5020009;28;20034;-80
2024/03/24 05:46:09;;;;;;;0.28;0.28;;;4.70;99.90;;;;;;5031543;28;20029;-79
2024/03/24 05:48:35;;;;;;;0.25;0.25;;;4.70;99.90;;;;;;5030490;28;20042;-79
2024/03/24 05:51:03;;;;;;;0.10;0.10;;;4.70;99.90;;;;;;5007723;28;20056;-80
2024/03/24 05:53:30;;;;;;;0.20;0.20;;;4.80;99.90;;;;;;5027879;28;20041;-79
2024/03/24 05:56:00;;;;;;;0.10;0.10;;;4.80;99.90;;;;;;5025628;28;20057;-79
2024/03/24 05:58:27;;;;;;;0.10;0.10;;;4.80;99.90;;;;;;5030725;28;20052;-82
2024/03/24 06:00:53;;;;;;;0.30;0.30;;;4.80;99.90;;;;;;4995440;28;20053;-80
2024/03/24 06:03:19;;;;;;;0.28;0.28;;;4.90;99.90;;;;;;5011902;28;20045;-83
2024/03/24 06:05:48;;;;;;;1.45;1.33;;;4.90;99.90;;;;;;5031576;28;20060;-80
2024/03/24 06:08:15;;;;;;;0.20;0.20;;;5.10;99.90;;;;;;5031239;28;20033;-79
2024/03/24 06:10:42;;;;;;;0.35;0.35;;;5.10;99.90;;;;;;5010070;28;20037;-80
2024/03/24 06:13:09;;;;;;;0.15;0.15;;;5.20;99.90;;;;;;5020208;28;20045;-79
2024/03/24 06:15:35;;;;;;;0.10;0.10;;;5.20;99.90;;;;;;5028640;28;20045;-78
2024/03/24 06:18:05;;;;;;;0.30;0.30;;;5.30;99.90;;;;;;5017921;28;20474;-80
2024/03/24 06:20:33;;;;;;;0.10;0.10;;;5.30;99.90;;;;;;5030359;28;20045;-81
2024/03/24 06:23:03;;;;;;;0.10;0.10;;;5.30;99.90;;;;;;5043218;28;20033;-80
2024/03/24 06:25:29;;;;;;;0.20;0.20;;;5.30;99.90;;;;;;5012095;28;20041;-80
2024/03/24 06:27:59;;;;;;;0.40;0.40;;;5.40;99.90;;;;;;5013044;28;20042;-81
2024/03/24 06:30:25;;;;;;;0.20;0.20;;;5.50;99.90;;;;;;5002871;28;20051;-81
2024/03/24 06:32:51;;;;;;;0.10;0.10;;;5.60;98.10;;;;;;5029560;28;20033;-79
2024/03/24 06:35:17;;;;;;;6.90;1.75;;;5.70;33.50;;;;;;5028458;28;20034;-80
2024/03/24 06:37:44;;;;;;;0.10;0.10;;;5.80;79.10;;;;;;5035015;28;20038;-79
2024/03/24 06:40:11;;;;;;;0.20;0.20;;;5.90;65.70;;;;;;5042588;28;20041;-81
2024/03/24 06:42:48;;;;;;;0.20;0.20;;;5.80;62.80;;;;;;5020531;28;20030;-80
2024/03/24 06:45:15;;;;;;;0.65;0.65;;;5.80;55.80;;;;;;4982925;28;20034;-79
2024/03/24 06:47:41;;;;;;;0.25;0.25;;;5.80;49.50;;;;;;5028976;28;20041;-80
2024/03/24 06:50:08;;;;;;;0.63;0.63;;;5.80;90.00;;;;;;5005977;28;20489;-80
2024/03/24 06:52:34;;;;;;;1.13;0.63;;;5.70;99.80;;;;;;5015272;28;20037;-80
2024/03/24 06:55:01;;;;;;;0.20;0.20;;;5.70;88.50;;;;;;5014258;28;20040;-81
2024/03/24 06:57:28;;;;;;;0.10;0.10;;;5.70;86.20;;;;;;5005167;28;20053;-81
2024/03/24 06:59:55;;;;;;;0.30;0.30;;;5.70;99.90;;;;;;5011557;28;20045;-81
2024/03/24 07:02:21;;;;;;;0.10;0.10;;;5.60;99.90;;;;;;5030002;28;20030;-80
2024/03/24 07:04:47;;;;;;;0.28;0.28;;;5.60;99.90;;;;;;5020852;28;20036;-80
2024/03/24 07:07:13;;;;;;;0.38;0.38;;;5.60;99.90;;;;;;5002842;28;20042;-81
2024/03/24 07:09:39;;;;;;;0.68;0.32;;;5.60;99.90;;;;;;5003973;28;20422;-80
2024/03/24 07:12:06;;;;;;;0.17;0.17;;;5.60;99.90;;;;;;5019087;28;20034;-80
2024/03/24 07:14:33;;;;;;;0.40;0.40;;;5.60;99.90;;;;;;5020080;28;20060;-80
2024/03/24 07:16:59;;;;;;;0.20;0.20;;;5.70;99.90;;;;;;4986388;28;20065;-80
2024/03/24 07:19:25;;;;;;;0.68;0.68;;;5.70;99.90;;;;;;5028005;28;20049;-81
2024/03/24 07:21:51;;;;;;;1.27;0.65;;;5.70;99.90;;;;;;5029457;28;20022;-81
2024/03/24 07:24:17;;;;;;;0.10;0.10;;;5.80;99.90;;;;;;5020633;28;20041;-81
2024/03/24 07:26:44;;;;;;;0.52;0.30;;;5.90;99.90;;;;;;5021800;28;20593;-80
2024/03/24 07:29:10;;;;;;;0.10;0.10;;;6.00;99.90;;;;;;5021322;28;20040;-78
2024/03/24 07:31:36;;;;;;;0.47;0.47;;;6.10;96.10;;;;;;5029684;28;20390;-79
2024/03/24 07:34:03;;;;;;;0.20;0.20;;;6.10;68.80;;;;;;5011892;28;20044;-81
2024/03/24 07:36:30;;;;;;;0.47;0.47;;;6.20;46.40;;;;;;5012540;28;20355;-81
2024/03/24 07:38:56;;;;;;;0.10;0.10;;;6.20;25.90;;;;;;5025920;28;20386;-80
2024/03/24 07:41:22;;;;;;;0.55;0.55;;;6.30;35.70;;;;;;5021288;28;20046;-80
2024/03/24 07:43:49;;;;;;;0.10;0.10;;;6.40;13.50;;;;;;5006800;28;20046;-80
2024/03/24 07:46:17;;;;;;;0.20;0.20;;;6.40;1.00;;;;;;5029695;28;20350;-78
2024/03/24 07:48:43;;;;;;;0.32;0.30;;;6.50;1.00;;;;;;5029965;28;20060;-80
2024/03/24 07:51:09;;;;;;;0.35;0.35;;;6.60;1.00;;;;;;5028824;28;20067;-80
2024/03/24 07:53:36;;;;;;;0.22;0.22;;;6.70;1.00;;;;;;5009567;28;20394;-80
2024/03/24 07:56:02;;;;;;;0.20;0.20;;;6.70;1.00;;;;;;5019936;28;20044;-80
2024/03/24 07:58:28;;;;;;;0.90;0.52;;;6.60;1.00;;;;;;5025472;28;20029;-82
2024/03/24 08:00:54;;;;;;;0.45;0.45;;;6.60;1.00;;;;;;4986319;28;20049;-79
2024/03/24 08:03:21;;;;;;;0.38;0.38;;;6.60;1.00;;;;;;5045034;28;20044;-78
2024/03/24 08:05:47;;;;;;;0.10;0.10;;;6.60;1.00;;;;;;5026758;28;20025;-79
2024/03/24 08:08:13;;;;;;;0.40;0.40;;;6.60;1.00;;;;;;5043188;28;20049;-80
2024/03/24 08:10:40;;;;;;;0.10;0.10;;;6.60;1.00;;;;;;5011980;28;20029;-79
2024/03/24 08:13:06;;;;;;;0.10;0.10;;;6.60;1.00;;;;;;5012745;28;20041;-79
2024/03/24 08:15:33;;;;;;;0.32;0.25;;;6.60;1.00;;;;;;4981309;28;20045;-79
2024/03/24 08:17:59;;;;;;;0.93;0.90;;;6.60;1.00;;;;;;5033385;28;20036;-80
2024/03/24 08:20:27;;;;;;;0.10;0.10;;;6.70;1.00;;;;;;5012049;28;20052;-79
2024/03/24 08:22:54;;;;;;;0.52;0.40;;;6.80;1.00;;;;;;5031995;28;20458;-80
2024/03/24 08:25:21;;;;;;;0.20;0.20;;;6.80;1.00;;;;;;5030026;28;20394;-78
2024/03/24 08:27:47;;;;;;;0.73;0.50;;;6.80;1.00;;;;;;5025906;28;20220;-79
2024/03/24 08:30:13;;;;;;;0.35;0.30;;;6.80;1.00;;;;;;5005581;28;20044;-78
2024/03/24 08:32:40;;;;;;;0.45;0.30;;;6.80;1.00;;;;;;5032044;28;20030;-79
2024/03/24 08:35:06;;;;;;;0.10;0.10;;;6.80;1.00;;;;;;5015700;28;20041;-80
2024/03/24 08:37:32;;;;;;;0.90;0.73;;;6.70;1.00;;;;;;5029744;28;20385;-78
2024/03/24 08:39:58;;;;;;;0.30;0.30;;;6.70;1.00;;;;;;5032512;28;20038;-80
2024/03/24 08:42:26;;;;;;;0.73;0.73;;;6.70;1.00;;;;;;5021562;28;20029;-78
2024/03/24 08:44:52;;;;;;;0.20;0.20;;;6.70;1.00;;;;;;5000789;28;20044;-81
2024/03/24 08:47:18;;;;;;;0.10;0.10;;;6.70;1.00;;;;;;5033077;28;20057;-82
2024/03/24 08:49:45;;;;;;;0.32;0.32;;;6.70;1.00;;;;;;5008632;28;20060;-83
2024/03/24 08:52:11;;;;;;;0.63;0.55;;;6.80;1.00;;;;;;5011063;28;20382;-79
2024/03/24 08:54:37;;;;;;;0.80;0.80;;;6.80;1.00;;;;;;5025797;28;20029;-79
2024/03/24 08:57:03;;;;;;;0.32;0.32;;;6.90;1.00;;;;;;5043680;28;20045;-79
2024/03/24 08:59:30;;;;;;;0.55;0.55;;;6.90;1.00;;;;;;5023751;28;20030;-84
2024/03/24 09:01:56;;;;;;;1.23;0.55;;;6.90;1.00;;;;;;5032361;28;20030;-80
2024/03/24 09:04:23;;;;;;;0.80;0.68;;;6.90;1.00;;;;;;5014132;28;20041;-80
2024/03/24 09:06:49;;;;;;;0.38;0.20;;;6.90;1.00;;;;;;5009043;28;20037;-78
2024/03/24 09:09:16;;;;;;;0.10;0.10;;;6.90;1.00;;;;;;5029294;28;20042;-79
2024/03/24 09:11:42;;;;;;;2.78;1.40;;;6.90;1.00;;;;;;5023506;28;20048;-80
2024/03/24 09:14:08;;;;;;;0.40;0.40;;;6.80;1.00;;;;;;5025579;28;20041;-80
2024/03/24 09:16:34;;;;;;;0.93;0.93;;;6.80;1.00;;;;;;5031808;28;20029;-79
2024/03/24 09:19:00;;;;;;;0.13;0.13;;;6.80;5.20;;;;;;5035120;28;20466;-80
2024/03/24 09:21:27;;;;;;;0.25;0.25;;;6.80;17.10;;;;;;5045836;28;20041;-81
2024/03/24 09:23:53;;;;;;;0.10;0.10;;;6.90;32.90;;;;;;5031173;28;20034;-83
2024/03/24 09:26:20;;;;;;;0.30;0.30;;;6.90;38.80;;;;;;4990432;28;20042;-81
2024/03/24 09:28:46;;;;;;;0.30;0.30;;;6.90;3.10;;;;;;5027462;28;20034;-80
2024/03/24 09:31:13;;;;;;;0.30;0.30;;;7.00;1.00;;;;;;5028426;28;20053;-79
2024/03/24 09:33:39;;;;;;;0.85;0.63;;;7.00;17.00;;;;;;5031156;28;20048;-80
2024/03/24 09:36:05;;;;;;;0.10;0.10;;;7.10;22.30;;;;;;5029909;28;20030;-80
2024/03/24 09:38:32;;;;;;;0.50;0.50;;;7.30;1.00;;;;;;5027861;28;20033;-82
2024/03/24 09:40:58;;;;;;;0.75;0.30;;;7.50;1.00;;;;;;5007757;28;20041;-81
2024/03/24 09:43:24;;;;;;;0.20;0.20;;;8.00;1.00;;;;;;5020780;28;20041;-82
2024/03/24 09:45:50;;;;;;;2.10;1.30;;;8.00;1.00;;;;;;5026683;28;20033;-84
2024/03/24 09:48:17;;;;;;;0.20;0.20;;;7.90;1.00;;;;;;5013538;28;20056;-82
2024/03/24 09:50:43;;;;;;;0.35;0.32;;;7.60;1.00;;;;;;5031243;28;20045;-83
2024/03/24 09:53:11;;;;;;;0.70;0.43;;;7.40;1.00;;;;;;5028742;28;20041;-82
2024/03/24 09:55:37;;;;;;;0.22;0.22;;;7.40;1.00;;;;;;5015571;28;20508;-80
2024/03/24 09:58:04;;;;;;;0.40;0.40;;;7.20;1.00;;;;;;5006538;28;20029;-80
2024/03/24 10:00:31;;;;;;;0.28;0.28;;;7.20;18.00;;;;;;5027841;28;20067;-84
2024/03/24 10:02:57;;;;;;;2.20;0.68;;;7.20;53.90;;;;;;5046582;28;20033;-83
2024/03/24 10:05:25;;;;;;;0.65;0.55;;;7.10;27.00;;;;;;5029105;28;20034;-83
2024/03/24 10:07:52;;;;;;;0.20;0.20;;;7.10;48.40;;;;;;5045320;28;20021;-81
2024/03/24 10:10:18;;;;;;;0.40;0.20;;;7.20;39.00;;;;;;5022657;28;20049;-81
2024/03/24 10:12:52;;;;;;;0.93;0.65;;;7.40;42.30;;;;;;5002472;28;20048;-82
2024/03/24 10:15:23;;;;;;;0.25;0.20;;;7.40;1.00;;;;;;5015956;28;20041;-80
2024/03/24 10:18:11;;;;;;;;;;;7.40;1.00;;;;;;5024614;28;20048;-82
2024/03/24 10:20:38;;;;;;;0.10;0.10;;;7.40;16.80;;;;;;5021121;28;19929;-83
2024/03/24 10:23:05;;;;;;;0.20;0.20;;;7.40;35.90;;;;;;5022487;28;20033;-81
2024/03/24 10:25:33;;;;;;;2.25;1.00;;;7.40;23.10;;;;;;5028922;28;20037;-84
2024/03/24 10:28:01;;;;;;;0.45;0.35;;;7.40;35.60;;;;;;5026660;28;20041;-80
2024/03/24 10:30:27;;;;;;;0.10;0.10;;;7.40;21.70;;;;;;5013929;28;20394;-81
2024/03/24 10:32:54;;;;;;;0.55;0.50;;;7.60;25.60;;;;;;5029501;28;20041;-79
2024/03/24 10:35:20;;;;;;;0.45;0.35;;;7.50;1.00;;;;;;5011994;28;20049;-79
2024/03/24 10:37:47;;;;;;;3.03;0.93;;;7.50;1.00;;;;;;5028207;28;20381;-79
2024/03/24 10:40:13;;;;;;;0.70;0.70;;;7.60;1.00;;;;;;4989656;28;20049;-80
2024/03/24 10:42:47;;;;;;;0.43;0.43;;;7.80;1.00;;;;;;5020115;28;20470;-80
2024/03/24 10:45:32;;;;;;;0.50;0.50;;;7.80;1.00;;;;;;5017733;28;20045;-80
2024/03/24 10:48:04;;;;;;;0.10;0.10;;;7.90;1.00;;;;;;5030100;28;20065;-81
2024/03/24 10:50:30;;;;;;;0.10;0.10;;;8.00;1.00;;;;;;5030512;28;20044;-85
2024/03/24 10:53:01;;;;;;;0.17;0.17;;;8.00;1.00;;;;;;5026424;28;20030;-83
2024/03/24 10:55:29;;;;;;;0.15;0.15;;;7.80;1.00;;;;;;5027292;28;20030;-82
2024/03/24 10:57:56;;;;;;;0.20;0.20;;;7.90;1.00;;;;;;5023093;28;20063;-79
2024/03/24 11:00:29;;;;;;;0.20;0.20;;;8.00;1.00;;;;;;5025537;28;20045;-80
2024/03/24 11:02:58;;;;;;;0.10;0.10;;;8.10;1.00;;;;;;5011134;28;20053;-80
2024/03/24 11:05:26;;;;;;;0.68;0.68;;;8.20;1.00;;;;;;5007115;28;20037;-80
2024/03/24 11:07:53;;;;;;;0.13;0.13;;;8.60;1.00;;;;;;5023418;28;20390;-79
2024/03/24 11:10:20;;;;;;;0.20;0.20;;;8.80;1.00;;;;;;5024925;28;20041;-80
2024/03/24 11:12:48;;;;;;;0.20;0.20;;;9.10;99.90;;;;;;5018978;28;20387;-80
2024/03/24 11:15:14;;;;;;;0.65;0.52;;;9.10;1.00;;;;;;5002386;28;20410;-80
2024/03/24 11:17:41;;;;;;;0.25;0.25;;;9.50;99.90;;;;;;5011953;28;20029;-81
2024/03/24 11:20:16;;;;;;;0.60;0.52;;;9.90;99.90;;;;;;5025393;28;20038;-80
2024/03/24 11:22:44;;;;;;;0.10;0.10;;;10.40;99.90;;;;;;5041457;28;20041;-85
2024/03/24 11:25:10;;;;;;;0.10;0.10;;;10.50;99.90;;;;;;5028077;28;20029;-82
2024/03/24 11:27:43;;;;;;;0.10;0.10;;;11.10;99.90;;;;;;5019225;28;20030;-81
2024/03/24 11:30:17;;;;;;;0.20;0.20;;;10.40;99.90;;;;;;5016401;28;20497;-82
2024/03/24 11:32:57;;;;;;;8.10;0.55;;;9.90;99.90;;;;;;5028023;28;20034;-83
2024/03/24 11:35:27;;;;;;;0.20;0.20;;;9.50;99.90;;;;;;5031180;28;20045;-82
2024/03/24 11:37:55;;;;;;;0.20;0.20;;;9.20;99.90;;;;;;5043709;28;20196;-80
2024/03/24 11:40:23;;;;;;;0.38;0.38;;;9.40;99.90;;;;;;5023665;28;20034;-81
2024/03/24 11:42:53;;;;;;;0.22;0.22;;;9.80;99.90;;;;;;5023490;28;20033;-81
2024/03/24 11:45:30;;;;;;;0.10;0.10;;;10.40;99.90;;;;;;5009029;28;20045;-81
2024/03/24 11:48:19;;;;;;;0.30;0.20;;;10.70;99.90;;;;;;5033019;28;20045;-83
2024/03/24 11:50:47;;;;;;;0.13;0.13;;;11.00;99.90;;;;;;5021771;28;20478;-82
2024/03/24 11:53:15;;;;;;;0.10;0.10;;;10.60;99.90;;;;;;5025743;28;20041;-84
2024/03/24 11:55:44;;;;;;;0.25;0.25;;;10.50;99.90;;;;;;5031934;28;20029;-81
2024/03/24 11:58:11;;;;;;;0.10;0.10;;;10.70;99.90;;;;;;5024566;28;20038;-82
2024/03/24 12:00:37;;;;;;;0.15;0.15;;;10.70;99.90;;;;;;4998573;28;20056;-82
2024/03/24 12:03:03;;;;;;;0.10;0.10;;;11.00;99.90;;;;;;5033294;28;20044;-85
2024/03/24 12:05:29;;;;;;;0.20;0.20;;;10.50;99.90;;;;;;5018065;28;20068;-84
2024/03/24 12:07:56;;;;;;;0.40;0.40;;;10.50;99.90;;;;;;5023381;28;20028;-82
2024/03/24 12:10:23;;;;;;;0.10;0.10;;;10.10;99.90;;;;;;5028897;28;20037;-81
2024/03/24 12:12:51;;;;;;;0.30;0.30;;;9.90;99.90;;;;;;5027711;28;20032;-81
2024/03/24 12:15:18;;;;;;;0.40;0.40;;;9.70;99.90;;;;;;5027947;28;20037;-81
2024/03/24 12:17:44;;;;;;;0.10;0.10;;;10.00;99.90;;;;;;5034537;28;20049;-80
2024/03/24 12:20:12;;;;;;;0.20;0.20;;;9.80;99.90;;;;;;5033639;28;20036;-88
2024/03/24 12:22:38;;;;;;;0.10;0.10;;;9.90;99.90;;;;;;5028381;28;20033;-84
2024/03/24 12:25:06;;;;;;;0.10;0.10;;;9.90;99.90;;;;;;5029758;28;20038;-83
2024/03/24 12:27:33;;;;;;;1.70;0.47;;;9.60;99.90;;;;;;5014136;28;20034;-82
2024/03/24 12:30:01;;;;;;;0.10;0.10;;;10.00;99.90;;;;;;5003968;28;20034;-81
2024/03/24 12:32:30;;;;;;;0.30;0.30;;;10.30;99.90;;;;;;5032249;28;20033;-83
2024/03/24 12:35:00;;;;;;;0.10;0.10;;;10.30;99.90;;;;;;5033091;28;20044;-86
2024/03/24 12:37:28;;;;;;;0.20;0.20;;;10.10;99.90;;;;;;5033569;28;20557;-85
2024/03/24 12:39:54;;;;;;;1.55;1.35;;;10.30;99.90;;;;;;5014363;28;20036;-83
2024/03/24 12:42:24;;;;;;;0.10;0.10;;;10.20;99.90;;;;;;5027364;28;20049;-81
2024/03/24 12:44:50;;;;;;;0.30;0.30;;;10.00;99.90;;;;;;5014434;28;20048;-83
2024/03/24 12:47:17;;;;;;;0.20;0.20;;;9.80;99.90;;;;;;5035239;28;20409;-81
2024/03/24 12:49:44;;;;;;;0.20;0.20;;;9.70;99.90;;;;;;5028458;28;20033;-82
2024/03/24 12:52:10;;;;;;;0.20;0.20;;;9.90;99.90;;;;;;5014184;28;20030;-82
2024/03/24 12:54:43;;;;;;;6.65;0.30;;;9.80;99.90;;;;;;5027451;28;20041;-83
2024/03/24 12:57:12;;;;;;;0.20;0.20;;;10.00;99.90;;;;;;5029052;28;20033;-81
2024/03/24 12:59:38;;;;;;;0.73;0.52;;;9.90;99.90;;;;;;5002917;28;20034;-85
2024/03/24 13:02:07;;;;;;;0.10;0.10;;;9.80;99.90;;;;;;5047499;28;20037;-81